sensor_id;sensor_type;location;lat;lon;timestamp;P1;durP1;ratioP1;P2;durP2;ratioP2
56285;SDS011;42191;47.562;9.686;2022-07-17T00:00:40;28.55;;;26.75;;
56285;SDS011;42191;47.562;9.686;2022-07-17T00:03:08;29.00;;;27.20;;
56285;SDS011;42191;47.562;9.686;2022-07-17T00:05:35;28.65;;;26.83;;
56285;SDS011;42191;47.562;9.686;2022-07-17T00:08:01;29.60;;;27.80;;
56285;SDS011;42191;47.562;9.686;2022-07-17T00:10:27;29.92;;;27.90;;
56285;SDS011;42191;47.562;9.686;2022-07-17T00:12:53;29.58;;;27.60;;
56285;SDS011;42191;47.562;9.686;2022-07-17T00:15:19;29.20;;;27.35;;
56285;SDS011;42191;47.562;9.686;2022-07-17T00:17:46;28.38;;;26.58;;
56285;SDS011;42191;47.562;9.686;2022-07-17T00:20:12;28.42;;;26.73;;
56285;SDS011;42191;47.562;9.686;2022-07-17T00:22:38;29.60;;;27.60;;
56285;SDS011;42191;47.562;9.686;2022-07-17T00:25:05;28.63;;;26.73;;
56285;SDS011;42191;47.562;9.686;2022-07-17T00:27:31;28.08;;;26.27;;
56285;SDS011;42191;47.562;9.686;2022-07-17T00:29:57;28.85;;;27.00;;
56285;SDS011;42191;47.562;9.686;2022-07-17T00:32:24;30.13;;;28.10;;
56285;SDS011;42191;47.562;9.686;2022-07-17T00:34:50;28.40;;;26.60;;
56285;SDS011;42191;47.562;9.686;2022-07-17T00:37:17;30.15;;;28.15;;
56285;SDS011;42191;47.562;9.686;2022-07-17T00:39:43;29.98;;;28.17;;
56285;SDS011;42191;47.562;9.686;2022-07-17T00:42:12;29.52;;;27.63;;
56285;SDS011;42191;47.562;9.686;2022-07-17T00:44:40;30.05;;;28.17;;
56285;SDS011;42191;47.562;9.686;2022-07-17T00:47:11;29.83;;;27.73;;
56285;SDS011;42191;47.562;9.686;2022-07-17T00:49:43;30.73;;;28.73;;
56285;SDS011;42191;47.562;9.686;2022-07-17T00:52:11;30.65;;;28.48;;
56285;SDS011;42191;47.562;9.686;2022-07-17T00:54:38;28.63;;;26.83;;
56285;SDS011;42191;47.562;9.686;2022-07-17T00:57:07;29.02;;;27.23;;
56285;SDS011;42191;47.562;9.686;2022-07-17T00:59:35;29.58;;;27.58;;
56285;SDS011;42191;47.562;9.686;2022-07-17T01:02:06;29.52;;;27.75;;
56285;SDS011;42191;47.562;9.686;2022-07-17T01:04:34;29.58;;;27.77;;
56285;SDS011;42191;47.562;9.686;2022-07-17T01:07:02;29.35;;;27.45;;
56285;SDS011;42191;47.562;9.686;2022-07-17T01:09:29;29.48;;;27.58;;
56285;SDS011;42191;47.562;9.686;2022-07-17T01:11:56;28.77;;;26.98;;
56285;SDS011;42191;47.562;9.686;2022-07-17T01:14:23;29.20;;;27.20;;
56285;SDS011;42191;47.562;9.686;2022-07-17T01:16:51;28.42;;;26.73;;
56285;SDS011;42191;47.562;9.686;2022-07-17T01:19:19;30.27;;;28.45;;
56285;SDS011;42191;47.562;9.686;2022-07-17T01:21:47;30.00;;;28.10;;
56285;SDS011;42191;47.562;9.686;2022-07-17T01:24:15;27.90;;;26.20;;
56285;SDS011;42191;47.562;9.686;2022-07-17T01:26:42;29.75;;;27.90;;
56285;SDS011;42191;47.562;9.686;2022-07-17T01:29:10;29.88;;;27.98;;
56285;SDS011;42191;47.562;9.686;2022-07-17T01:31:38;31.45;;;29.45;;
56285;SDS011;42191;47.562;9.686;2022-07-17T01:34:05;29.13;;;27.33;;
56285;SDS011;42191;47.562;9.686;2022-07-17T01:36:33;29.20;;;27.30;;
56285;SDS011;42191;47.562;9.686;2022-07-17T01:38:59;30.05;;;28.25;;
56285;SDS011;42191;47.562;9.686;2022-07-17T01:41:26;29.23;;;27.45;;
56285;SDS011;42191;47.562;9.686;2022-07-17T01:43:53;29.25;;;27.25;;
56285;SDS011;42191;47.562;9.686;2022-07-17T01:46:19;29.50;;;27.55;;
56285;SDS011;42191;47.562;9.686;2022-07-17T01:48:45;31.33;;;29.42;;
56285;SDS011;42191;47.562;9.686;2022-07-17T01:51:12;28.65;;;26.85;;
56285;SDS011;42191;47.562;9.686;2022-07-17T01:53:38;30.00;;;28.10;;
56285;SDS011;42191;47.562;9.686;2022-07-17T01:56:04;30.50;;;28.20;;
56285;SDS011;42191;47.562;9.686;2022-07-17T01:58:31;30.83;;;28.92;;
56285;SDS011;42191;47.562;9.686;2022-07-17T02:00:57;30.17;;;28.27;;
56285;SDS011;42191;47.562;9.686;2022-07-17T02:03:24;30.45;;;28.55;;
56285;SDS011;42191;47.562;9.686;2022-07-17T02:05:50;30.55;;;28.55;;
56285;SDS011;42191;47.562;9.686;2022-07-17T02:08:16;30.10;;;28.20;;
56285;SDS011;42191;47.562;9.686;2022-07-17T02:10:42;31.55;;;29.45;;
56285;SDS011;42191;47.562;9.686;2022-07-17T02:13:09;29.00;;;27.30;;
56285;SDS011;42191;47.562;9.686;2022-07-17T02:15:35;31.63;;;29.73;;
56285;SDS011;42191;47.562;9.686;2022-07-17T02:18:01;31.58;;;29.67;;
56285;SDS011;42191;47.562;9.686;2022-07-17T02:20:27;29.70;;;27.90;;
56285;SDS011;42191;47.562;9.686;2022-07-17T02:22:53;31.17;;;29.27;;
56285;SDS011;42191;47.562;9.686;2022-07-17T02:25:19;29.75;;;27.88;;
56285;SDS011;42191;47.562;9.686;2022-07-17T02:27:46;28.42;;;26.58;;
56285;SDS011;42191;47.562;9.686;2022-07-17T02:30:13;31.45;;;29.50;;
56285;SDS011;42191;47.562;9.686;2022-07-17T02:32:41;30.17;;;28.38;;
56285;SDS011;42191;47.562;9.686;2022-07-17T02:35:08;31.52;;;29.52;;
56285;SDS011;42191;47.562;9.686;2022-07-17T02:37:35;28.52;;;26.67;;
56285;SDS011;42191;47.562;9.686;2022-07-17T02:40:02;30.50;;;28.70;;
56285;SDS011;42191;47.562;9.686;2022-07-17T02:42:29;31.52;;;29.60;;
56285;SDS011;42191;47.562;9.686;2022-07-17T02:44:57;32.35;;;30.35;;
56285;SDS011;42191;47.562;9.686;2022-07-17T02:47:26;32.25;;;30.25;;
56285;SDS011;42191;47.562;9.686;2022-07-17T02:49:53;28.83;;;26.98;;
56285;SDS011;42191;47.562;9.686;2022-07-17T02:52:19;31.02;;;29.13;;
56285;SDS011;42191;47.562;9.686;2022-07-17T02:54:46;29.13;;;26.88;;
56285;SDS011;42191;47.562;9.686;2022-07-17T02:57:12;31.23;;;29.33;;
56285;SDS011;42191;47.562;9.686;2022-07-17T02:59:39;29.10;;;27.05;;
56285;SDS011;42191;47.562;9.686;2022-07-17T03:02:06;29.25;;;27.45;;
56285;SDS011;42191;47.562;9.686;2022-07-17T03:04:32;30.75;;;28.85;;
56285;SDS011;42191;47.562;9.686;2022-07-17T03:06:59;29.38;;;27.58;;
56285;SDS011;42191;47.562;9.686;2022-07-17T03:09:25;29.70;;;27.90;;
56285;SDS011;42191;47.562;9.686;2022-07-17T03:11:51;29.50;;;27.70;;
56285;SDS011;42191;47.562;9.686;2022-07-17T03:14:17;30.92;;;29.02;;
56285;SDS011;42191;47.562;9.686;2022-07-17T03:16:43;29.73;;;27.92;;
56285;SDS011;42191;47.562;9.686;2022-07-17T03:19:09;30.23;;;28.42;;
56285;SDS011;42191;47.562;9.686;2022-07-17T03:21:35;29.27;;;27.48;;
56285;SDS011;42191;47.562;9.686;2022-07-17T03:24:02;30.23;;;28.13;;
56285;SDS011;42191;47.562;9.686;2022-07-17T03:26:29;30.15;;;28.27;;
56285;SDS011;42191;47.562;9.686;2022-07-17T03:28:55;31.80;;;29.90;;
56285;SDS011;42191;47.562;9.686;2022-07-17T03:31:21;32.60;;;30.52;;
56285;SDS011;42191;47.562;9.686;2022-07-17T03:33:47;29.55;;;27.65;;
56285;SDS011;42191;47.562;9.686;2022-07-17T03:36:13;30.02;;;28.13;;
56285;SDS011;42191;47.562;9.686;2022-07-17T03:38:39;29.05;;;27.25;;
56285;SDS011;42191;47.562;9.686;2022-07-17T03:41:05;29.33;;;27.48;;
56285;SDS011;42191;47.562;9.686;2022-07-17T03:43:31;31.65;;;29.75;;
56285;SDS011;42191;47.562;9.686;2022-07-17T03:45:57;28.90;;;27.10;;
56285;SDS011;42191;47.562;9.686;2022-07-17T03:48:23;31.08;;;28.98;;
56285;SDS011;42191;47.562;9.686;2022-07-17T03:50:49;30.83;;;28.83;;
56285;SDS011;42191;47.562;9.686;2022-07-17T03:53:15;29.88;;;27.83;;
56285;SDS011;42191;47.562;9.686;2022-07-17T03:55:42;30.13;;;28.23;;
56285;SDS011;42191;47.562;9.686;2022-07-17T03:58:08;29.38;;;27.38;;
56285;SDS011;42191;47.562;9.686;2022-07-17T04:00:34;29.30;;;27.50;;
56285;SDS011;42191;47.562;9.686;2022-07-17T04:03:00;29.88;;;28.08;;
56285;SDS011;42191;47.562;9.686;2022-07-17T04:05:26;31.17;;;29.27;;
56285;SDS011;42191;47.562;9.686;2022-07-17T04:07:52;30.40;;;28.55;;
56285;SDS011;42191;47.562;9.686;2022-07-17T04:10:18;29.90;;;28.08;;
56285;SDS011;42191;47.562;9.686;2022-07-17T04:12:44;31.23;;;29.33;;
56285;SDS011;42191;47.562;9.686;2022-07-17T04:15:11;29.77;;;27.88;;
56285;SDS011;42191;47.562;9.686;2022-07-17T04:17:37;30.92;;;29.02;;
56285;SDS011;42191;47.562;9.686;2022-07-17T04:20:03;30.33;;;28.42;;
56285;SDS011;42191;47.562;9.686;2022-07-17T04:22:30;30.67;;;28.77;;
56285;SDS011;42191;47.562;9.686;2022-07-17T04:24:56;31.67;;;29.75;;
56285;SDS011;42191;47.562;9.686;2022-07-17T04:27:22;29.85;;;27.95;;
56285;SDS011;42191;47.562;9.686;2022-07-17T04:29:48;29.73;;;27.92;;
56285;SDS011;42191;47.562;9.686;2022-07-17T04:32:14;30.27;;;28.38;;
56285;SDS011;42191;47.562;9.686;2022-07-17T04:34:40;28.63;;;26.73;;
56285;SDS011;42191;47.562;9.686;2022-07-17T04:37:06;31.25;;;29.35;;
56285;SDS011;42191;47.562;9.686;2022-07-17T04:39:32;31.08;;;29.17;;
56285;SDS011;42191;47.562;9.686;2022-07-17T04:41:58;32.15;;;30.15;;
56285;SDS011;42191;47.562;9.686;2022-07-17T04:44:24;30.30;;;28.20;;
56285;SDS011;42191;47.562;9.686;2022-07-17T04:46:51;31.30;;;29.40;;
56285;SDS011;42191;47.562;9.686;2022-07-17T04:49:17;27.85;;;26.15;;
56285;SDS011;42191;47.562;9.686;2022-07-17T04:51:43;31.40;;;29.48;;
56285;SDS011;42191;47.562;9.686;2022-07-17T04:54:09;30.17;;;28.27;;
56285;SDS011;42191;47.562;9.686;2022-07-17T04:56:35;29.65;;;27.80;;
56285;SDS011;42191;47.562;9.686;2022-07-17T04:59:01;31.05;;;29.15;;
56285;SDS011;42191;47.562;9.686;2022-07-17T05:01:29;30.27;;;28.38;;
56285;SDS011;42191;47.562;9.686;2022-07-17T05:03:55;28.58;;;26.83;;
56285;SDS011;42191;47.562;9.686;2022-07-17T05:06:21;31.15;;;29.25;;
56285;SDS011;42191;47.562;9.686;2022-07-17T05:08:47;29.88;;;27.98;;
56285;SDS011;42191;47.562;9.686;2022-07-17T05:11:13;29.98;;;28.10;;
56285;SDS011;42191;47.562;9.686;2022-07-17T05:13:39;30.33;;;28.52;;
56285;SDS011;42191;47.562;9.686;2022-07-17T05:16:05;29.55;;;27.75;;
56285;SDS011;42191;47.562;9.686;2022-07-17T05:18:31;32.13;;;30.13;;
56285;SDS011;42191;47.562;9.686;2022-07-17T05:20:58;28.60;;;26.90;;
56285;SDS011;42191;47.562;9.686;2022-07-17T05:23:24;29.30;;;27.40;;
56285;SDS011;42191;47.562;9.686;2022-07-17T05:25:50;30.92;;;29.02;;
56285;SDS011;42191;47.562;9.686;2022-07-17T05:28:16;28.83;;;26.80;;
56285;SDS011;42191;47.562;9.686;2022-07-17T05:30:42;28.10;;;26.40;;
56285;SDS011;42191;47.562;9.686;2022-07-17T05:33:08;29.48;;;27.67;;
56285;SDS011;42191;47.562;9.686;2022-07-17T05:35:34;28.63;;;26.83;;
56285;SDS011;42191;47.562;9.686;2022-07-17T05:38:00;29.02;;;27.20;;
56285;SDS011;42191;47.562;9.686;2022-07-17T05:40:26;28.95;;;27.15;;
56285;SDS011;42191;47.562;9.686;2022-07-17T05:42:52;27.45;;;25.77;;
56285;SDS011;42191;47.562;9.686;2022-07-17T05:45:19;28.95;;;27.15;;
56285;SDS011;42191;47.562;9.686;2022-07-17T05:47:45;30.42;;;28.52;;
56285;SDS011;42191;47.562;9.686;2022-07-17T05:50:11;28.48;;;26.77;;
56285;SDS011;42191;47.562;9.686;2022-07-17T05:52:37;30.92;;;28.83;;
56285;SDS011;42191;47.562;9.686;2022-07-17T05:55:03;28.23;;;26.48;;
56285;SDS011;42191;47.562;9.686;2022-07-17T05:57:30;28.52;;;26.73;;
56285;SDS011;42191;47.562;9.686;2022-07-17T05:59:56;29.92;;;28.13;;
56285;SDS011;42191;47.562;9.686;2022-07-17T06:02:22;30.00;;;28.20;;
56285;SDS011;42191;47.562;9.686;2022-07-17T06:04:48;29.30;;;27.33;;
56285;SDS011;42191;47.562;9.686;2022-07-17T06:07:14;29.25;;;27.27;;
56285;SDS011;42191;47.562;9.686;2022-07-17T06:09:40;28.60;;;26.88;;
56285;SDS011;42191;47.562;9.686;2022-07-17T06:12:06;29.02;;;27.02;;
56285;SDS011;42191;47.562;9.686;2022-07-17T06:14:32;28.80;;;26.95;;
56285;SDS011;42191;47.562;9.686;2022-07-17T06:16:58;27.98;;;26.27;;
56285;SDS011;42191;47.562;9.686;2022-07-17T06:19:24;30.60;;;28.70;;
56285;SDS011;42191;47.562;9.686;2022-07-17T06:21:51;29.75;;;27.88;;
56285;SDS011;42191;47.562;9.686;2022-07-17T06:24:17;27.88;;;26.17;;
56285;SDS011;42191;47.562;9.686;2022-07-17T06:26:43;28.02;;;26.33;;
56285;SDS011;42191;47.562;9.686;2022-07-17T06:29:09;31.25;;;29.20;;
56285;SDS011;42191;47.562;9.686;2022-07-17T06:31:35;30.35;;;28.45;;
56285;SDS011;42191;47.562;9.686;2022-07-17T06:34:01;29.63;;;27.70;;
56285;SDS011;42191;47.562;9.686;2022-07-17T06:36:27;28.88;;;27.10;;
56285;SDS011;42191;47.562;9.686;2022-07-17T06:38:53;29.10;;;27.30;;
56285;SDS011;42191;47.562;9.686;2022-07-17T06:41:19;28.98;;;27.17;;
56285;SDS011;42191;47.562;9.686;2022-07-17T06:43:45;26.98;;;25.27;;
56285;SDS011;42191;47.562;9.686;2022-07-17T06:46:12;30.55;;;28.55;;
56285;SDS011;42191;47.562;9.686;2022-07-17T06:48:38;30.38;;;28.50;;
56285;SDS011;42191;47.562;9.686;2022-07-17T06:51:04;30.83;;;28.83;;
56285;SDS011;42191;47.562;9.686;2022-07-17T06:53:30;28.60;;;26.80;;
56285;SDS011;42191;47.562;9.686;2022-07-17T06:55:56;29.60;;;27.80;;
56285;SDS011;42191;47.562;9.686;2022-07-17T06:58:22;28.67;;;26.88;;
56285;SDS011;42191;47.562;9.686;2022-07-17T07:00:48;27.73;;;25.83;;
56285;SDS011;42191;47.562;9.686;2022-07-17T07:03:14;29.17;;;27.15;;
56285;SDS011;42191;47.562;9.686;2022-07-17T07:05:40;28.05;;;26.15;;
56285;SDS011;42191;47.562;9.686;2022-07-17T07:08:07;26.98;;;25.25;;
56285;SDS011;42191;47.562;9.686;2022-07-17T07:10:33;28.95;;;27.15;;
56285;SDS011;42191;47.562;9.686;2022-07-17T07:12:59;26.50;;;24.83;;
56285;SDS011;42191;47.562;9.686;2022-07-17T07:15:25;27.92;;;26.17;;
56285;SDS011;42191;47.562;9.686;2022-07-17T07:17:51;27.77;;;25.92;;
56285;SDS011;42191;47.562;9.686;2022-07-17T07:20:18;28.23;;;26.52;;
56285;SDS011;42191;47.562;9.686;2022-07-17T07:22:44;27.52;;;25.73;;
56285;SDS011;42191;47.562;9.686;2022-07-17T07:25:10;28.70;;;26.90;;
56285;SDS011;42191;47.562;9.686;2022-07-17T07:27:36;28.98;;;27.08;;
56285;SDS011;42191;47.562;9.686;2022-07-17T07:30:02;28.30;;;26.60;;
56285;SDS011;42191;47.562;9.686;2022-07-17T07:32:29;27.90;;;25.90;;
56285;SDS011;42191;47.562;9.686;2022-07-17T07:34:55;28.08;;;26.35;;
56285;SDS011;42191;47.562;9.686;2022-07-17T07:37:21;28.10;;;26.40;;
56285;SDS011;42191;47.562;9.686;2022-07-17T07:39:47;28.20;;;26.40;;
56285;SDS011;42191;47.562;9.686;2022-07-17T07:42:13;29.20;;;27.13;;
56285;SDS011;42191;47.562;9.686;2022-07-17T07:44:39;28.25;;;26.55;;
56285;SDS011;42191;47.562;9.686;2022-07-17T07:47:05;27.48;;;25.58;;
56285;SDS011;42191;47.562;9.686;2022-07-17T07:49:32;28.20;;;26.05;;
56285;SDS011;42191;47.562;9.686;2022-07-17T07:51:58;28.55;;;26.65;;
56285;SDS011;42191;47.562;9.686;2022-07-17T07:54:24;28.70;;;26.90;;
56285;SDS011;42191;47.562;9.686;2022-07-17T07:56:50;28.55;;;26.65;;
56285;SDS011;42191;47.562;9.686;2022-07-17T07:59:16;27.98;;;26.27;;
56285;SDS011;42191;47.562;9.686;2022-07-17T08:01:42;28.75;;;26.83;;
56285;SDS011;42191;47.562;9.686;2022-07-17T08:04:08;28.75;;;26.75;;
56285;SDS011;42191;47.562;9.686;2022-07-17T08:06:34;28.52;;;26.65;;
56285;SDS011;42191;47.562;9.686;2022-07-17T08:09:00;29.48;;;27.48;;
56285;SDS011;42191;47.562;9.686;2022-07-17T08:11:27;28.92;;;27.02;;
56285;SDS011;42191;47.562;9.686;2022-07-17T08:13:53;27.77;;;25.98;;
56285;SDS011;42191;47.562;9.686;2022-07-17T08:16:19;28.10;;;26.25;;
56285;SDS011;42191;47.562;9.686;2022-07-17T08:18:45;28.90;;;26.85;;
56285;SDS011;42191;47.562;9.686;2022-07-17T08:21:11;28.83;;;27.08;;
56285;SDS011;42191;47.562;9.686;2022-07-17T08:23:37;26.75;;;24.85;;
56285;SDS011;42191;47.562;9.686;2022-07-17T08:26:03;26.17;;;24.42;;
56285;SDS011;42191;47.562;9.686;2022-07-17T08:28:30;27.92;;;25.92;;
56285;SDS011;42191;47.562;9.686;2022-07-17T08:30:57;30.05;;;27.90;;
56285;SDS011;42191;47.562;9.686;2022-07-17T08:33:23;28.88;;;27.08;;
56285;SDS011;42191;47.562;9.686;2022-07-17T08:35:49;26.85;;;25.10;;
56285;SDS011;42191;47.562;9.686;2022-07-17T08:38:15;27.10;;;25.40;;
56285;SDS011;42191;47.562;9.686;2022-07-17T08:40:41;27.02;;;25.13;;
56285;SDS011;42191;47.562;9.686;2022-07-17T08:43:08;28.48;;;26.60;;
56285;SDS011;42191;47.562;9.686;2022-07-17T08:45:35;28.25;;;26.20;;
56285;SDS011;42191;47.562;9.686;2022-07-17T08:48:04;28.98;;;27.17;;
56285;SDS011;42191;47.562;9.686;2022-07-17T08:50:32;28.25;;;26.45;;
56285;SDS011;42191;47.562;9.686;2022-07-17T08:53:00;28.70;;;26.70;;
56285;SDS011;42191;47.562;9.686;2022-07-17T08:55:27;28.27;;;26.38;;
56285;SDS011;42191;47.562;9.686;2022-07-17T08:57:54;28.48;;;26.67;;
56285;SDS011;42191;47.562;9.686;2022-07-17T09:00:21;28.63;;;26.83;;
56285;SDS011;42191;47.562;9.686;2022-07-17T09:02:53;28.98;;;27.15;;
56285;SDS011;42191;47.562;9.686;2022-07-17T09:05:23;26.08;;;24.38;;
56285;SDS011;42191;47.562;9.686;2022-07-17T09:07:52;27.83;;;26.02;;
56285;SDS011;42191;47.562;9.686;2022-07-17T09:10:29;27.13;;;25.42;;
56285;SDS011;42191;47.562;9.686;2022-07-17T09:12:56;27.40;;;25.65;;
56285;SDS011;42191;47.562;9.686;2022-07-17T09:15:23;28.50;;;26.73;;
56285;SDS011;42191;47.562;9.686;2022-07-17T09:17:50;28.38;;;26.58;;
56285;SDS011;42191;47.562;9.686;2022-07-17T09:20:17;28.38;;;26.55;;
56285;SDS011;42191;47.562;9.686;2022-07-17T09:22:54;28.55;;;26.48;;
56285;SDS011;42191;47.562;9.686;2022-07-17T09:28:19;27.92;;;26.13;;
56285;SDS011;42191;47.562;9.686;2022-07-17T09:30:48;26.70;;;24.65;;
56285;SDS011;42191;47.562;9.686;2022-07-17T09:33:20;27.25;;;25.45;;
56285;SDS011;42191;47.562;9.686;2022-07-17T09:35:54;27.45;;;25.75;;
56285;SDS011;42191;47.562;9.686;2022-07-17T09:41:08;27.85;;;26.15;;
56285;SDS011;42191;47.562;9.686;2022-07-17T09:43:50;28.60;;;26.77;;
56285;SDS011;42191;47.562;9.686;2022-07-17T09:46:26;28.23;;;26.38;;
56285;SDS011;42191;47.562;9.686;2022-07-17T09:48:57;26.35;;;24.55;;
56285;SDS011;42191;47.562;9.686;2022-07-17T09:51:25;26.75;;;25.05;;
56285;SDS011;42191;47.562;9.686;2022-07-17T09:53:54;27.75;;;26.05;;
56285;SDS011;42191;47.562;9.686;2022-07-17T09:56:23;27.52;;;25.77;;
56285;SDS011;42191;47.562;9.686;2022-07-17T09:58:52;29.05;;;27.20;;
56285;SDS011;42191;47.562;9.686;2022-07-17T10:01:20;26.42;;;24.50;;
56285;SDS011;42191;47.562;9.686;2022-07-17T10:03:46;29.05;;;27.15;;
56285;SDS011;42191;47.562;9.686;2022-07-17T10:06:18;26.70;;;25.02;;
56285;SDS011;42191;47.562;9.686;2022-07-17T10:08:45;27.23;;;25.52;;
56285;SDS011;42191;47.562;9.686;2022-07-17T10:11:12;27.25;;;25.55;;
56285;SDS011;42191;47.562;9.686;2022-07-17T10:13:41;27.20;;;25.30;;
56285;SDS011;42191;47.562;9.686;2022-07-17T10:16:10;26.98;;;25.27;;
56285;SDS011;42191;47.562;9.686;2022-07-17T10:18:43;26.55;;;24.40;;
56285;SDS011;42191;47.562;9.686;2022-07-17T10:23:47;26.13;;;24.40;;
56285;SDS011;42191;47.562;9.686;2022-07-17T10:29:01;24.10;;;22.60;;
56285;SDS011;42191;47.562;9.686;2022-07-17T10:31:29;25.00;;;23.27;;
56285;SDS011;42191;47.562;9.686;2022-07-17T10:34:04;25.13;;;23.50;;
56285;SDS011;42191;47.562;9.686;2022-07-17T10:36:32;26.17;;;24.05;;
56285;SDS011;42191;47.562;9.686;2022-07-17T10:38:58;25.38;;;23.80;;
56285;SDS011;42191;47.562;9.686;2022-07-17T10:41:35;25.67;;;24.08;;
56285;SDS011;42191;47.562;9.686;2022-07-17T10:44:01;24.52;;;22.92;;
56285;SDS011;42191;47.562;9.686;2022-07-17T10:46:27;25.48;;;23.88;;
56285;SDS011;42191;47.562;9.686;2022-07-17T10:48:53;25.48;;;23.88;;
56285;SDS011;42191;47.562;9.686;2022-07-17T10:51:24;25.77;;;24.15;;
56285;SDS011;42191;47.562;9.686;2022-07-17T10:53:52;26.13;;;24.42;;
56285;SDS011;42191;47.562;9.686;2022-07-17T10:56:24;27.13;;;25.20;;
56285;SDS011;42191;47.562;9.686;2022-07-17T10:58:51;27.23;;;25.13;;
56285;SDS011;42191;47.562;9.686;2022-07-17T11:01:19;25.92;;;24.30;;
56285;SDS011;42191;47.562;9.686;2022-07-17T11:03:47;26.23;;;24.35;;
56285;SDS011;42191;47.562;9.686;2022-07-17T11:06:22;26.23;;;24.33;;
56285;SDS011;42191;47.562;9.686;2022-07-17T11:08:49;27.15;;;25.13;;
56285;SDS011;42191;47.562;9.686;2022-07-17T11:11:22;25.58;;;23.98;;
56285;SDS011;42191;47.562;9.686;2022-07-17T11:17:02;26.48;;;24.77;;
56285;SDS011;42191;47.562;9.686;2022-07-17T11:19:33;25.70;;;24.10;;
56285;SDS011;42191;47.562;9.686;2022-07-17T11:22:07;26.65;;;24.85;;
56285;SDS011;42191;47.562;9.686;2022-07-17T11:24:39;25.20;;;23.27;;
56285;SDS011;42191;47.562;9.686;2022-07-17T11:27:11;26.65;;;24.73;;
56285;SDS011;42191;47.562;9.686;2022-07-17T11:29:43;27.15;;;25.42;;
56285;SDS011;42191;47.562;9.686;2022-07-17T11:32:10;25.90;;;24.30;;
56285;SDS011;42191;47.562;9.686;2022-07-17T11:34:36;26.40;;;24.80;;
56285;SDS011;42191;47.562;9.686;2022-07-17T11:37:03;25.33;;;23.75;;
56285;SDS011;42191;47.562;9.686;2022-07-17T11:39:38;25.15;;;23.40;;
56285;SDS011;42191;47.562;9.686;2022-07-17T11:42:10;25.55;;;23.90;;
56285;SDS011;42191;47.562;9.686;2022-07-17T11:44:49;25.48;;;23.58;;
56285;SDS011;42191;47.562;9.686;2022-07-17T11:47:20;25.65;;;24.05;;
56285;SDS011;42191;47.562;9.686;2022-07-17T11:49:51;25.75;;;23.92;;
56285;SDS011;42191;47.562;9.686;2022-07-17T11:52:39;25.38;;;23.77;;
56285;SDS011;42191;47.562;9.686;2022-07-17T11:55:10;24.40;;;22.90;;
56285;SDS011;42191;47.562;9.686;2022-07-17T11:57:47;25.35;;;23.75;;
56285;SDS011;42191;47.562;9.686;2022-07-17T12:00:15;25.42;;;23.58;;
56285;SDS011;42191;47.562;9.686;2022-07-17T12:02:43;25.48;;;23.80;;
56285;SDS011;42191;47.562;9.686;2022-07-17T12:05:09;25.40;;;23.80;;
56285;SDS011;42191;47.562;9.686;2022-07-17T12:12:54;26.23;;;24.55;;
56285;SDS011;42191;47.562;9.686;2022-07-17T12:15:22;25.48;;;23.75;;
56285;SDS011;42191;47.562;9.686;2022-07-17T12:18:03;24.42;;;22.90;;
56285;SDS011;42191;47.562;9.686;2022-07-17T12:20:44;24.75;;;23.15;;
56285;SDS011;42191;47.562;9.686;2022-07-17T12:26:03;24.45;;;22.85;;
56285;SDS011;42191;47.562;9.686;2022-07-17T12:28:29;25.45;;;23.85;;
56285;SDS011;42191;47.562;9.686;2022-07-17T12:30:55;24.80;;;23.05;;
56285;SDS011;42191;47.562;9.686;2022-07-17T12:33:21;24.27;;;22.67;;
56285;SDS011;42191;47.562;9.686;2022-07-17T12:35:47;26.00;;;24.40;;
56285;SDS011;42191;47.562;9.686;2022-07-17T12:38:13;25.88;;;24.17;;
56285;SDS011;42191;47.562;9.686;2022-07-17T12:40:40;24.45;;;22.90;;
56285;SDS011;42191;47.562;9.686;2022-07-17T12:43:06;26.08;;;23.88;;
56285;SDS011;42191;47.562;9.686;2022-07-17T12:45:34;24.85;;;23.15;;
56285;SDS011;42191;47.562;9.686;2022-07-17T12:48:00;24.05;;;22.45;;
56285;SDS011;42191;47.562;9.686;2022-07-17T12:50:26;25.80;;;24.00;;
56285;SDS011;42191;47.562;9.686;2022-07-17T12:52:52;25.38;;;23.77;;
56285;SDS011;42191;47.562;9.686;2022-07-17T12:55:19;25.08;;;23.48;;
56285;SDS011;42191;47.562;9.686;2022-07-17T12:57:45;24.48;;;22.90;;
56285;SDS011;42191;47.562;9.686;2022-07-17T13:00:11;24.95;;;23.40;;
56285;SDS011;42191;47.562;9.686;2022-07-17T13:02:38;23.48;;;22.05;;
56285;SDS011;42191;47.562;9.686;2022-07-17T13:05:05;25.23;;;23.60;;
56285;SDS011;42191;47.562;9.686;2022-07-17T13:07:31;24.83;;;23.25;;
56285;SDS011;42191;47.562;9.686;2022-07-17T13:09:57;23.45;;;21.80;;
56285;SDS011;42191;47.562;9.686;2022-07-17T13:12:23;24.73;;;23.23;;
56285;SDS011;42191;47.562;9.686;2022-07-17T13:14:49;24.70;;;23.20;;
56285;SDS011;42191;47.562;9.686;2022-07-17T13:17:16;23.13;;;21.63;;
56285;SDS011;42191;47.562;9.686;2022-07-17T13:19:42;22.55;;;21.02;;
56285;SDS011;42191;47.562;9.686;2022-07-17T13:22:08;21.65;;;20.25;;
56285;SDS011;42191;47.562;9.686;2022-07-17T13:24:34;21.75;;;20.45;;
56285;SDS011;42191;47.562;9.686;2022-07-17T13:27:00;20.60;;;19.30;;
56285;SDS011;42191;47.562;9.686;2022-07-17T13:29:26;20.17;;;18.88;;
56285;SDS011;42191;47.562;9.686;2022-07-17T13:31:53;20.02;;;18.83;;
56285;SDS011;42191;47.562;9.686;2022-07-17T13:34:20;19.05;;;17.75;;
56285;SDS011;42191;47.562;9.686;2022-07-17T13:36:47;19.75;;;18.45;;
56285;SDS011;42191;47.562;9.686;2022-07-17T13:39:14;20.27;;;18.90;;
56285;SDS011;42191;47.562;9.686;2022-07-17T13:41:40;19.52;;;18.13;;
56285;SDS011;42191;47.562;9.686;2022-07-17T13:44:07;19.58;;;18.27;;
56285;SDS011;42191;47.562;9.686;2022-07-17T13:46:33;19.75;;;18.40;;
56285;SDS011;42191;47.562;9.686;2022-07-17T13:49:00;19.83;;;18.52;;
56285;SDS011;42191;47.562;9.686;2022-07-17T13:51:26;19.40;;;18.05;;
56285;SDS011;42191;47.562;9.686;2022-07-17T13:53:54;19.92;;;18.52;;
56285;SDS011;42191;47.562;9.686;2022-07-17T13:56:22;19.58;;;18.38;;
56285;SDS011;42191;47.562;9.686;2022-07-17T13:58:48;20.02;;;18.73;;
56285;SDS011;42191;47.562;9.686;2022-07-17T14:01:14;19.85;;;18.55;;
56285;SDS011;42191;47.562;9.686;2022-07-17T14:03:41;19.42;;;18.23;;
56285;SDS011;42191;47.562;9.686;2022-07-17T14:06:08;18.63;;;17.52;;
56285;SDS011;42191;47.562;9.686;2022-07-17T14:08:34;19.80;;;18.60;;
56285;SDS011;42191;47.562;9.686;2022-07-17T14:11:02;19.90;;;18.70;;
56285;SDS011;42191;47.562;9.686;2022-07-17T14:13:29;19.08;;;17.98;;
56285;SDS011;42191;47.562;9.686;2022-07-17T14:15:55;20.00;;;18.70;;
56285;SDS011;42191;47.562;9.686;2022-07-17T14:18:21;19.48;;;18.33;;
56285;SDS011;42191;47.562;9.686;2022-07-17T14:20:47;19.48;;;18.27;;
56285;SDS011;42191;47.562;9.686;2022-07-17T14:23:14;19.30;;;18.20;;
56285;SDS011;42191;47.562;9.686;2022-07-17T14:25:42;19.48;;;18.25;;
56285;SDS011;42191;47.562;9.686;2022-07-17T14:28:09;19.50;;;18.30;;
56285;SDS011;42191;47.562;9.686;2022-07-17T14:30:36;19.45;;;18.15;;
56285;SDS011;42191;47.562;9.686;2022-07-17T14:33:02;19.45;;;18.30;;
56285;SDS011;42191;47.562;9.686;2022-07-17T14:35:28;19.25;;;17.95;;
56285;SDS011;42191;47.562;9.686;2022-07-17T14:37:54;18.95;;;17.77;;
56285;SDS011;42191;47.562;9.686;2022-07-17T14:40:20;19.60;;;18.40;;
56285;SDS011;42191;47.562;9.686;2022-07-17T14:42:46;19.23;;;18.13;;